createdAt,value
2023-03-04T00:00:25.815Z,26.10
2023-03-04T00:01:25.760Z,26.70
2023-03-04T00:02:25.760Z,26.50
2023-03-04T00:03:25.793Z,26.50
2023-03-04T00:04:25.752Z,26.70
2023-03-04T00:05:25.717Z,26.20
2023-03-04T00:06:25.777Z,26.40
2023-03-04T00:07:25.681Z,25.50
2023-03-04T00:08:25.751Z,26.00
2023-03-04T00:09:25.656Z,27.70
2023-03-04T00:10:25.669Z,25.60
2023-03-04T00:11:25.643Z,26.20
2023-03-04T00:12:25.694Z,26.10
2023-03-04T00:13:25.672Z,25.80
2023-03-04T00:14:28.283Z,27.00
2023-03-04T00:15:26.215Z,27.10
2023-03-04T00:16:25.598Z,27.30
2023-03-04T00:17:26.618Z,27.40
2023-03-04T00:18:25.587Z,26.70
2023-03-04T00:19:25.566Z,27.20
2023-03-04T00:20:25.598Z,27.50
2023-03-04T00:21:25.558Z,26.10
2023-03-04T00:22:25.557Z,28.10
2023-03-04T00:23:25.613Z,26.80
2023-03-04T00:24:25.713Z,27.30
2023-03-04T00:25:25.510Z,27.10
2023-03-04T00:26:25.564Z,27.40
2023-03-04T00:27:25.473Z,28.00
2023-03-04T00:28:25.544Z,27.80
2023-03-04T00:29:25.503Z,27.20
2023-03-04T00:30:25.520Z,27.40
2023-03-04T00:31:25.550Z,27.60
2023-03-04T00:32:25.568Z,27.90
2023-03-04T00:33:25.466Z,28.60
2023-03-04T00:34:25.487Z,27.80
2023-03-04T00:35:25.477Z,28.50
2023-03-04T00:36:25.433Z,29.20
2023-03-04T00:37:25.419Z,27.90
2023-03-04T00:38:25.402Z,28.10
2023-03-04T00:39:26.274Z,28.30
2023-03-04T00:40:25.321Z,28.30
2023-03-04T00:41:25.360Z,28.10
2023-03-04T00:42:25.344Z,27.70
2023-03-04T00:43:25.369Z,27.80
2023-03-04T00:44:25.293Z,27.50
2023-03-04T00:45:25.343Z,28.30
2023-03-04T00:46:25.277Z,28.70
2023-03-04T00:47:25.264Z,29.40
2023-03-04T00:48:25.362Z,28.30
2023-03-04T00:49:25.275Z,29.10
2023-03-04T00:50:25.299Z,29.50
2023-03-04T00:51:25.238Z,29.40
2023-03-04T00:52:25.218Z,28.80
2023-03-04T00:53:25.210Z,28.50
2023-03-04T00:54:25.307Z,27.90
2023-03-04T00:55:25.203Z,29.00
2023-03-04T00:56:25.202Z,28.70
2023-03-04T00:57:26.211Z,29.80
2023-03-04T00:58:25.146Z,29.40
2023-03-04T00:59:25.207Z,29.70
2023-03-04T01:00:26.168Z,29.40
2023-03-04T01:01:25.175Z,29.80
2023-03-04T01:02:25.160Z,30.40
2023-03-04T01:03:25.104Z,28.90
2023-03-04T01:04:25.106Z,30.20
2023-03-04T01:05:25.096Z,29.90
2023-03-04T01:06:25.109Z,30.20
2023-03-04T01:07:25.149Z,30.50
2023-03-04T01:08:25.056Z,30.20
2023-03-04T01:09:25.835Z,30.00
2023-03-04T01:10:25.108Z,29.70
2023-03-04T01:11:25.055Z,30.60
2023-03-04T01:12:25.055Z,29.20
2023-03-04T01:13:25.029Z,30.10
2023-03-04T01:14:25.045Z,28.90
2023-03-04T01:15:24.993Z,30.30
2023-03-04T01:16:25.033Z,30.30
2023-03-04T01:17:24.947Z,28.30
2023-03-04T01:18:24.974Z,29.80
2023-03-04T01:19:24.978Z,29.80
2023-03-04T01:20:24.934Z,28.80
2023-03-04T01:21:24.953Z,30.10
2023-03-04T01:22:25.293Z,29.40
2023-03-04T01:23:25.908Z,27.20
2023-03-04T01:24:24.885Z,27.60
2023-03-04T01:25:24.893Z,28.00
2023-03-04T01:26:24.910Z,27.40
2023-03-04T01:27:24.887Z,29.30
2023-03-04T01:28:24.864Z,29.10
2023-03-04T01:29:24.829Z,27.90
2023-03-04T01:30:24.756Z,28.40
2023-03-04T01:31:24.785Z,29.20
2023-03-04T01:32:24.903Z,28.80
2023-03-04T01:33:24.793Z,28.30
2023-03-04T01:34:24.818Z,27.40
2023-03-04T01:35:24.792Z,28.60
2023-03-04T01:36:24.774Z,27.10
2023-03-04T01:37:24.767Z,28.50
2023-03-04T01:38:24.713Z,28.30
2023-03-04T01:39:24.776Z,27.40
2023-03-04T01:40:24.735Z,26.80
2023-03-04T01:41:24.692Z,27.30
2023-03-04T01:42:24.751Z,21.20
2023-03-04T01:43:25.701Z,19.10
2023-03-04T01:44:24.679Z,17.20
2023-03-04T01:45:24.632Z,20.20
2023-03-04T01:46:24.824Z,22.90
2023-03-04T01:47:24.680Z,21.80
2023-03-04T01:48:24.636Z,17.50
2023-03-04T01:49:24.602Z,16.40
2023-03-04T01:50:24.629Z,14.70
2023-03-04T01:51:24.591Z,13.90
2023-03-04T01:52:24.663Z,13.50
2023-03-04T01:53:24.581Z,13.00
2023-03-04T01:54:24.548Z,13.50
2023-03-04T01:55:24.590Z,13.20
2023-03-04T01:56:24.574Z,13.80
2023-03-04T01:57:24.589Z,13.30
2023-03-04T01:58:24.545Z,13.10
2023-03-04T01:59:24.540Z,11.80
2023-03-04T02:00:24.576Z,11.90
2023-03-04T02:01:24.572Z,11.90
2023-03-04T02:02:24.495Z,12.60
2023-03-04T02:03:24.461Z,12.40
2023-03-04T02:04:24.588Z,11.70
2023-03-04T02:05:24.483Z,11.40
2023-03-04T02:06:24.502Z,11.60
2023-03-04T02:07:24.482Z,11.20
2023-03-04T02:08:24.466Z,11.10
2023-03-04T02:09:24.451Z,11.00
2023-03-04T02:10:24.444Z,11.00
2023-03-04T02:11:24.387Z,11.90
2023-03-04T02:12:24.355Z,12.70
2023-03-04T02:13:24.408Z,13.30
2023-03-04T02:14:24.348Z,11.70
2023-03-04T02:15:24.348Z,11.70
2023-03-04T02:16:24.343Z,11.80
2023-03-04T02:17:24.356Z,12.10
2023-03-04T02:18:24.293Z,13.00
2023-03-04T02:19:24.376Z,12.10
2023-03-04T02:20:24.289Z,11.40
2023-03-04T02:21:24.277Z,11.50
2023-03-04T02:22:24.272Z,11.60
2023-03-04T02:23:24.257Z,11.70
2023-03-04T02:24:24.243Z,11.30
2023-03-04T02:25:24.219Z,11.70
2023-03-04T02:26:24.236Z,11.30
2023-03-04T02:27:24.149Z,12.10
2023-03-04T02:28:24.140Z,11.70
2023-03-04T02:29:24.456Z,11.40
2023-03-04T02:30:24.166Z,11.90
2023-03-04T02:31:24.222Z,11.60
2023-03-04T02:32:24.207Z,12.20
2023-03-04T02:33:24.136Z,11.20
2023-03-04T02:34:24.105Z,11.00
2023-03-04T02:35:24.223Z,11.20
2023-03-04T02:36:24.061Z,10.70
2023-03-04T02:37:24.060Z,10.50
2023-03-04T02:38:24.041Z,10.80
2023-03-04T02:39:24.037Z,11.30
2023-03-04T02:40:24.025Z,11.30
2023-03-04T02:41:24.022Z,11.30
2023-03-04T02:42:24.019Z,11.10
2023-03-04T02:43:23.986Z,11.40
2023-03-04T02:44:24.018Z,10.60
2023-03-04T02:45:24.006Z,11.10
2023-03-04T02:46:24.013Z,11.70
2023-03-04T02:47:23.953Z,11.30
2023-03-04T02:48:23.983Z,11.10
2023-03-04T02:49:23.943Z,11.20
2023-03-04T02:50:23.939Z,11.30
2023-03-04T02:51:23.899Z,11.80
2023-03-04T02:52:23.896Z,11.30
2023-03-04T02:53:23.885Z,11.80
2023-03-04T02:54:23.907Z,10.70
2023-03-04T02:55:23.909Z,11.00
2023-03-04T02:56:23.824Z,11.60
2023-03-04T02:57:23.832Z,11.60
2023-03-04T02:58:23.823Z,11.40
2023-03-04T02:59:23.860Z,11.10
2023-03-04T03:00:23.843Z,11.40
2023-03-04T03:01:24.065Z,11.30
2023-03-04T03:02:23.810Z,11.00
2023-03-04T03:03:23.818Z,10.60
2023-03-04T03:04:23.773Z,10.80
2023-03-04T03:05:23.784Z,10.50
2023-03-04T03:06:23.752Z,10.30
2023-03-04T03:07:23.749Z,10.40
2023-03-04T03:08:23.750Z,10.60
2023-03-04T03:09:23.775Z,10.60
2023-03-04T03:10:23.766Z,10.60
2023-03-04T03:11:24.826Z,11.30
2023-03-04T03:12:23.662Z,10.70
2023-03-04T03:13:23.671Z,10.00
2023-03-04T03:14:23.687Z,10.50
2023-03-04T03:15:23.642Z,10.90
2023-03-04T03:16:23.664Z,9.80
2023-03-04T03:17:23.648Z,10.40
2023-03-04T03:18:23.634Z,10.10
2023-03-04T03:19:23.663Z,9.60
2023-03-04T03:20:23.585Z,9.80
2023-03-04T03:21:23.595Z,9.50
2023-03-04T03:22:23.569Z,9.70
2023-03-04T03:23:23.562Z,9.60
2023-03-04T03:24:23.599Z,9.50
2023-03-04T03:25:23.507Z,9.80
2023-03-04T03:26:23.528Z,9.70
2023-03-04T03:27:23.511Z,9.60
2023-03-04T03:28:23.492Z,9.80
2023-03-04T03:29:23.703Z,9.90
2023-03-04T03:30:23.487Z,9.70
2023-03-04T03:31:23.550Z,9.40
2023-03-04T03:32:23.561Z,9.30
2023-03-04T03:33:23.579Z,9.80
2023-03-04T03:34:23.723Z,9.20
2023-03-04T03:35:23.487Z,9.20
2023-03-04T03:36:23.462Z,9.40
2023-03-04T03:37:23.435Z,9.60
2023-03-04T03:38:23.421Z,9.40
2023-03-04T03:39:23.397Z,9.40
2023-03-04T03:40:23.366Z,8.80
2023-03-04T03:41:23.435Z,8.80
2023-03-04T03:42:23.331Z,8.80
2023-03-04T03:43:23.351Z,8.10
2023-03-04T03:44:23.359Z,8.20
2023-03-04T03:45:23.300Z,8.20
2023-03-04T03:46:23.312Z,7.80
2023-03-04T03:47:23.328Z,8.20
2023-03-04T03:48:23.302Z,8.40
2023-03-04T03:49:23.301Z,8.40
2023-03-04T03:50:23.296Z,8.50
2023-03-04T03:51:23.257Z,8.60
2023-03-04T03:52:23.211Z,8.50
2023-03-04T03:53:23.242Z,8.00
2023-03-04T03:54:23.209Z,8.60
2023-03-04T03:55:23.231Z,8.40
2023-03-04T03:56:23.225Z,8.70
2023-03-04T03:57:23.187Z,8.40
2023-03-04T03:58:23.184Z,8.50
2023-03-04T03:59:23.209Z,8.60
2023-03-04T04:00:23.141Z,9.00
2023-03-04T04:01:23.143Z,8.10
2023-03-04T04:02:23.294Z,8.10
2023-03-04T04:03:23.100Z,8.00
2023-03-04T04:04:23.250Z,7.50
2023-03-04T04:05:24.093Z,7.80
2023-03-04T04:06:23.075Z,7.80
2023-03-04T04:07:23.046Z,8.00
2023-03-04T04:08:23.083Z,7.70
2023-03-04T04:09:23.067Z,8.30
2023-03-04T04:10:23.041Z,7.90
2023-03-04T04:11:23.043Z,8.00
2023-03-04T04:12:23.050Z,8.50
2023-03-04T04:13:23.001Z,8.00
2023-03-04T04:14:23.052Z,8.20
2023-03-04T04:15:23.044Z,8.30
2023-03-04T04:16:23.184Z,8.10
2023-03-04T04:17:22.956Z,7.70
2023-03-04T04:18:22.984Z,8.60
2023-03-04T04:19:22.944Z,7.30
2023-03-04T04:20:25.599Z,8.30
2023-03-04T04:21:22.913Z,8.00
2023-03-04T04:22:22.934Z,8.40
2023-03-04T04:23:22.902Z,7.90
2023-03-04T04:24:22.869Z,8.20
2023-03-04T04:25:23.928Z,8.10
2023-03-04T04:26:22.872Z,8.00
2023-03-04T04:27:22.842Z,7.70
2023-03-04T04:28:22.873Z,7.90
2023-03-04T04:29:22.817Z,8.10
2023-03-04T04:30:22.857Z,7.80
2023-03-04T04:31:22.837Z,7.70
2023-03-04T04:32:22.882Z,7.50
2023-03-04T04:33:22.808Z,7.50
2023-03-04T04:34:22.765Z,8.30
2023-03-04T04:35:22.774Z,7.50
2023-03-04T04:36:22.810Z,7.80
2023-03-04T04:37:22.781Z,8.60
2023-03-04T04:38:22.792Z,7.60
2023-03-04T04:39:22.713Z,7.20
2023-03-04T04:40:22.853Z,7.90
2023-03-04T04:41:22.758Z,7.00
2023-03-04T04:42:22.689Z,7.00
2023-03-04T04:43:22.655Z,7.10
2023-03-04T04:44:22.670Z,7.10
2023-03-04T04:45:22.662Z,7.30
2023-03-04T04:46:22.811Z,7.30
2023-03-04T04:47:22.604Z,7.30
2023-03-04T04:48:22.616Z,7.10
2023-03-04T04:49:22.607Z,7.30
2023-03-04T04:50:22.615Z,6.80
2023-03-04T04:51:22.611Z,6.50
2023-03-04T04:52:22.589Z,7.00
2023-03-04T04:53:22.703Z,7.00
2023-03-04T04:54:22.553Z,6.90
2023-03-04T04:55:22.566Z,6.60
2023-03-04T04:56:22.563Z,6.60
2023-03-04T04:57:22.550Z,6.40
2023-03-04T04:58:22.544Z,6.20
2023-03-04T04:59:22.514Z,6.00
2023-03-04T05:00:22.484Z,6.00
2023-03-04T05:01:22.505Z,6.30
2023-03-04T05:02:22.478Z,6.50
2023-03-04T05:03:23.647Z,5.90
2023-03-04T05:04:23.511Z,6.10
2023-03-04T05:05:22.405Z,6.00
2023-03-04T05:06:22.407Z,5.50
2023-03-04T05:07:22.444Z,6.00
2023-03-04T05:08:22.409Z,6.50
2023-03-04T05:09:22.389Z,5.60
2023-03-04T05:10:22.419Z,6.00
2023-03-04T05:11:22.334Z,5.80
2023-03-04T05:12:22.379Z,6.20
2023-03-04T05:13:22.366Z,5.90
2023-03-04T05:14:22.346Z,6.30
2023-03-04T05:15:22.306Z,6.40
2023-03-04T05:16:22.331Z,5.80
2023-03-04T05:17:22.306Z,6.00
2023-03-04T05:18:22.302Z,6.30
2023-03-04T05:19:22.336Z,6.50
2023-03-04T05:20:22.269Z,6.30
2023-03-04T05:21:22.276Z,6.30
2023-03-04T05:22:22.255Z,6.50
2023-03-04T05:23:23.042Z,6.90
2023-03-04T05:24:22.237Z,6.50
2023-03-04T05:25:22.207Z,6.90
2023-03-04T05:26:22.190Z,6.80
2023-03-04T05:27:22.220Z,7.20
2023-03-04T05:28:22.193Z,6.30
2023-03-04T05:29:22.636Z,6.30
2023-03-04T05:30:22.209Z,6.40
2023-03-04T05:31:22.265Z,6.80
2023-03-04T05:32:22.224Z,6.00
2023-03-04T05:33:22.137Z,6.10
2023-03-04T05:34:22.144Z,5.90
2023-03-04T05:35:22.192Z,6.00
2023-03-04T05:36:22.108Z,6.40
2023-03-04T05:37:22.087Z,6.00
2023-03-04T05:38:22.097Z,6.50
2023-03-04T05:39:22.030Z,7.50
2023-03-04T05:40:22.030Z,8.80
2023-03-04T05:41:22.081Z,7.10
2023-03-04T05:42:22.062Z,6.20
2023-03-04T05:43:22.025Z,5.80
2023-03-04T05:44:22.015Z,6.00
2023-03-04T05:45:22.016Z,5.90
2023-03-04T05:46:22.026Z,5.70
2023-03-04T05:47:22.077Z,5.80
2023-03-04T05:48:21.986Z,5.70
2023-03-04T05:49:21.956Z,5.40
2023-03-04T05:50:21.935Z,6.20
2023-03-04T05:51:21.969Z,6.00
2023-03-04T05:52:21.952Z,8.00
2023-03-04T05:53:21.916Z,7.20
2023-03-04T05:54:21.898Z,7.50
2023-03-04T05:55:21.885Z,8.40
2023-03-04T05:56:21.920Z,7.60
2023-03-04T05:57:21.854Z,6.50
2023-03-04T05:58:21.865Z,5.80
2023-03-04T05:59:21.826Z,5.60
2023-03-04T06:00:21.831Z,5.70
2023-03-04T06:01:21.825Z,5.60
2023-03-04T06:02:21.852Z,6.10
2023-03-04T06:03:21.849Z,5.80
2023-03-04T06:04:21.778Z,6.20
2023-03-04T06:05:21.780Z,5.60
2023-03-04T06:06:21.779Z,5.80
2023-03-04T06:07:21.735Z,6.30
2023-03-04T06:08:21.765Z,6.00
2023-03-04T06:09:21.700Z,6.30
2023-03-04T06:10:21.694Z,5.30
2023-03-04T06:11:21.748Z,6.70
2023-03-04T06:12:21.665Z,6.40
2023-03-04T06:13:22.719Z,5.80
2023-03-04T06:14:21.786Z,6.10
2023-03-04T06:15:21.715Z,6.20
2023-03-04T06:16:21.751Z,6.20
2023-03-04T06:17:21.642Z,5.70
2023-03-04T06:18:21.639Z,6.00
2023-03-04T06:19:21.673Z,5.90
2023-03-04T06:20:21.632Z,6.10
2023-03-04T06:21:21.629Z,6.60
2023-03-04T06:22:21.619Z,6.30
2023-03-04T06:23:21.568Z,6.00
2023-03-04T06:24:21.612Z,6.70
2023-03-04T06:25:21.582Z,5.90
2023-03-04T06:26:21.539Z,5.70
2023-03-04T06:27:21.588Z,5.70
2023-03-04T06:28:21.534Z,6.00
2023-03-04T06:29:21.550Z,5.70
2023-03-04T06:30:22.088Z,5.90
2023-03-04T06:31:21.541Z,5.70
2023-03-04T06:32:21.530Z,5.30
2023-03-04T06:33:21.490Z,5.20
2023-03-04T06:34:21.451Z,5.30
2023-03-04T06:35:21.484Z,5.40
2023-03-04T06:36:21.443Z,5.00
2023-03-04T06:37:22.456Z,5.30
2023-03-04T06:38:21.411Z,5.20
2023-03-04T06:39:21.493Z,5.00
2023-03-04T06:40:21.423Z,6.10
2023-03-04T06:41:21.386Z,5.50
2023-03-04T06:42:21.414Z,5.80
2023-03-04T06:43:21.358Z,5.30
2023-03-04T06:44:21.372Z,5.30
2023-03-04T06:45:21.357Z,5.90
2023-03-04T06:46:21.396Z,5.40
2023-03-04T06:47:21.322Z,5.70
2023-03-04T06:48:21.333Z,5.00
2023-03-04T06:49:21.337Z,5.00
2023-03-04T06:50:21.282Z,5.20
2023-03-04T06:51:21.264Z,5.00
2023-03-04T06:52:21.302Z,5.30
2023-03-04T06:53:21.314Z,5.20
2023-03-04T06:54:21.299Z,4.90
2023-03-04T06:55:21.276Z,5.20
2023-03-04T06:56:21.221Z,5.00
2023-03-04T06:57:21.184Z,4.90
2023-03-04T06:58:21.205Z,4.90
2023-03-04T06:59:21.201Z,5.10
2023-03-04T07:00:21.170Z,4.60
2023-03-04T07:01:21.179Z,4.90
2023-03-04T07:02:21.162Z,4.80
2023-03-04T07:03:21.166Z,4.80
2023-03-04T07:04:21.144Z,4.70
2023-03-04T07:05:21.097Z,4.20
2023-03-04T07:06:21.093Z,4.20
2023-03-04T07:07:21.137Z,4.70
2023-03-04T07:08:22.106Z,4.40
2023-03-04T07:09:22.062Z,4.70
2023-03-04T07:10:21.135Z,4.30
2023-03-04T07:11:21.045Z,4.50
2023-03-04T07:12:21.056Z,4.70
2023-03-04T07:13:21.051Z,4.70
2023-03-04T07:14:23.743Z,4.30
2023-03-04T07:15:21.022Z,4.70
2023-03-04T07:16:21.017Z,4.60
2023-03-04T07:17:21.003Z,4.60
2023-03-04T07:18:20.964Z,4.20
2023-03-04T07:19:20.958Z,4.70
2023-03-04T07:20:20.924Z,4.40
2023-03-04T07:21:20.942Z,4.20
2023-03-04T07:22:20.899Z,4.50
2023-03-04T07:23:20.926Z,4.60
2023-03-04T07:24:20.914Z,4.40
2023-03-04T07:25:20.867Z,4.60
2023-03-04T07:26:20.886Z,4.50
2023-03-04T07:27:20.878Z,4.50
2023-03-04T07:28:21.931Z,5.20
2023-03-04T07:29:20.860Z,4.90
2023-03-04T07:30:20.844Z,4.40
2023-03-04T07:31:20.921Z,5.00
2023-03-04T07:32:21.045Z,4.30
2023-03-04T07:33:20.865Z,4.10
2023-03-04T07:34:20.819Z,4.30
2023-03-04T07:35:20.818Z,4.50
2023-03-04T07:36:20.772Z,4.70
2023-03-04T07:37:21.020Z,4.80
2023-03-04T07:38:20.864Z,4.10
2023-03-04T07:39:20.704Z,4.20
2023-03-04T07:40:20.782Z,4.00
2023-03-04T07:41:20.715Z,4.30
2023-03-04T07:42:20.680Z,3.90
2023-03-04T07:43:20.685Z,4.30
2023-03-04T07:44:20.740Z,4.10
2023-03-04T07:45:20.882Z,4.20
2023-03-04T07:46:20.957Z,4.30
2023-03-04T07:47:20.789Z,4.30
2023-03-04T07:48:20.848Z,4.10
2023-03-04T07:49:21.058Z,4.40
2023-03-04T07:50:20.945Z,4.60
2023-03-04T07:51:20.623Z,4.50
2023-03-04T07:52:20.619Z,4.90
2023-03-04T07:53:20.562Z,4.20
2023-03-04T07:54:20.591Z,4.30
2023-03-04T07:55:20.755Z,4.10
2023-03-04T07:56:20.561Z,4.20
2023-03-04T07:57:20.579Z,4.70
2023-03-04T07:58:20.527Z,3.70
2023-03-04T07:59:20.610Z,4.00
2023-03-04T08:00:20.583Z,4.60
2023-03-04T08:01:20.601Z,4.20
2023-03-04T08:02:20.612Z,4.30
2023-03-04T08:03:20.601Z,3.40
2023-03-04T08:04:20.528Z,3.60
2023-03-04T08:05:20.434Z,3.80
2023-03-04T08:06:20.471Z,4.30
2023-03-04T08:07:20.478Z,4.40
2023-03-04T08:08:20.412Z,4.10
2023-03-04T08:09:20.704Z,3.90
2023-03-04T08:10:52.808Z,3.40
2023-03-04T08:11:20.477Z,4.10
2023-03-04T08:12:20.428Z,4.30
2023-03-04T08:13:20.390Z,3.90
2023-03-04T08:14:20.457Z,4.10
2023-03-04T08:15:20.400Z,3.80
2023-03-04T08:16:20.428Z,4.00
2023-03-04T08:17:20.387Z,4.10
2023-03-04T08:18:20.389Z,4.60
2023-03-04T08:19:20.335Z,4.10
2023-03-04T08:20:20.317Z,4.00
2023-03-04T08:21:20.285Z,3.70
2023-03-04T08:22:20.383Z,3.50
2023-03-04T08:23:21.875Z,3.70
2023-03-04T08:24:20.327Z,3.80
2023-03-04T08:25:20.285Z,4.00
2023-03-04T08:26:21.097Z,4.60
2023-03-04T08:27:20.174Z,3.90
2023-03-04T08:28:20.186Z,5.20
2023-03-04T08:29:20.174Z,3.80
2023-03-04T08:30:20.137Z,3.80
2023-03-04T08:31:20.329Z,4.30
2023-03-04T08:32:20.321Z,4.30
2023-03-04T08:33:20.137Z,3.70
2023-03-04T08:34:20.114Z,3.60
2023-03-04T08:35:20.132Z,3.80
2023-03-04T08:36:20.146Z,4.30
2023-03-04T08:37:20.089Z,4.50
2023-03-04T08:38:20.595Z,4.10
2023-03-04T08:39:20.058Z,4.40
2023-03-04T08:40:20.053Z,3.70
2023-03-04T08:41:20.039Z,3.90
2023-03-04T08:42:20.042Z,4.10
2023-03-04T08:43:20.009Z,4.40
2023-03-04T08:44:20.001Z,4.10
2023-03-04T08:45:20.022Z,4.20
2023-03-04T08:46:20.016Z,4.20
2023-03-04T08:47:19.972Z,4.40
2023-03-04T08:48:19.997Z,4.10
2023-03-04T08:49:19.963Z,4.20
2023-03-04T08:50:22.289Z,4.10
2023-03-04T08:51:20.933Z,4.10
2023-03-04T08:52:19.909Z,4.10
2023-03-04T08:53:19.947Z,4.30
2023-03-04T08:54:20.055Z,3.90
2023-03-04T08:55:19.887Z,4.40
2023-03-04T08:56:19.934Z,4.10
2023-03-04T08:57:19.880Z,4.20
2023-03-04T08:58:19.894Z,3.90
2023-03-04T08:59:19.874Z,4.20
2023-03-04T09:00:19.855Z,4.00
2023-03-04T09:01:19.896Z,4.30
2023-03-04T09:02:19.907Z,3.90
2023-03-04T09:03:19.844Z,4.00
2023-03-04T09:04:19.831Z,4.40
2023-03-04T09:05:19.858Z,3.70
2023-03-04T09:06:19.790Z,4.60
2023-03-04T09:07:19.812Z,3.80
2023-03-04T09:08:19.792Z,3.80
2023-03-04T09:09:19.739Z,4.40
2023-03-04T09:10:19.749Z,4.30
2023-03-04T09:11:19.785Z,4.30
2023-03-04T09:12:19.733Z,4.00
2023-03-04T09:13:19.727Z,3.80
2023-03-04T09:14:19.743Z,3.60
2023-03-04T09:15:19.764Z,3.50
2023-03-04T09:16:19.733Z,4.00
2023-03-04T09:17:20.664Z,3.30
2023-03-04T09:18:19.671Z,3.30
2023-03-04T09:19:19.712Z,3.10
2023-03-04T09:20:19.671Z,3.60
2023-03-04T09:21:20.618Z,3.40
2023-03-04T09:22:19.661Z,3.60
2023-03-04T09:23:19.614Z,3.50
2023-03-04T09:24:19.591Z,3.60
2023-03-04T09:25:19.630Z,3.90
2023-03-04T09:26:19.574Z,3.90
2023-03-04T09:27:19.544Z,4.10
2023-03-04T09:28:20.213Z,3.50
2023-03-04T09:29:19.534Z,3.70
2023-03-04T09:30:19.511Z,3.60
2023-03-04T09:31:19.561Z,3.00
2023-03-04T09:32:19.698Z,3.00
2023-03-04T09:33:19.565Z,3.10
2023-03-04T09:34:19.478Z,3.80
2023-03-04T09:35:19.528Z,3.90
2023-03-04T09:36:19.507Z,3.50
2023-03-04T09:37:19.471Z,3.40
2023-03-04T09:38:19.475Z,3.00
2023-03-04T09:39:22.743Z,3.30
2023-03-04T09:40:19.445Z,3.40
2023-03-04T09:41:19.399Z,3.10
2023-03-04T09:42:19.344Z,3.30
2023-03-04T09:43:19.444Z,3.10
2023-03-04T09:44:19.346Z,3.40
2023-03-04T09:45:19.353Z,3.20
2023-03-04T09:46:19.384Z,2.70
2023-03-04T09:47:19.314Z,3.00
2023-03-04T09:48:19.287Z,3.60
2023-03-04T09:49:19.325Z,3.20
2023-03-04T09:50:19.321Z,3.20
2023-03-04T09:51:19.376Z,3.30
2023-03-04T09:52:19.313Z,3.00
2023-03-04T09:53:19.275Z,3.00
2023-03-04T09:54:19.264Z,3.30
2023-03-04T09:55:19.238Z,3.00
2023-03-04T09:56:19.228Z,3.10
2023-03-04T09:57:19.608Z,3.10
2023-03-04T09:58:19.257Z,3.40
2023-03-04T09:59:19.221Z,3.00
2023-03-04T10:00:19.227Z,3.00
2023-03-04T10:01:19.279Z,2.80
2023-03-04T10:02:19.178Z,2.90
2023-03-04T10:03:19.248Z,2.70
2023-03-04T10:04:19.217Z,2.90
2023-03-04T10:05:19.175Z,2.90
2023-03-04T10:06:20.131Z,2.90
2023-03-04T10:07:19.120Z,3.00
2023-03-04T10:08:19.138Z,3.20
2023-03-04T10:09:19.126Z,3.50
2023-03-04T10:10:19.131Z,3.20
2023-03-04T10:11:19.065Z,3.20
2023-03-04T10:12:19.061Z,2.80
2023-03-04T10:13:19.054Z,3.00
2023-03-04T10:14:19.046Z,3.00
2023-03-04T10:15:19.045Z,3.00
2023-03-04T10:16:18.993Z,3.40
2023-03-04T10:17:19.020Z,3.20
2023-03-04T10:18:20.587Z,3.60
2023-03-04T10:19:19.994Z,3.70
2023-03-04T10:20:19.015Z,3.20
2023-03-04T10:21:18.965Z,3.10
2023-03-04T10:22:18.921Z,2.90
2023-03-04T10:23:18.928Z,2.90
2023-03-04T10:24:18.931Z,3.30
2023-03-04T10:25:18.895Z,3.10
2023-03-04T10:26:18.957Z,2.90
2023-03-04T10:27:18.894Z,3.20
2023-03-04T10:28:18.868Z,3.50
2023-03-04T10:29:18.862Z,3.30
2023-03-04T10:30:18.872Z,3.30
2023-03-04T10:31:18.884Z,3.20
2023-03-04T10:32:18.908Z,2.90
2023-03-04T10:33:18.811Z,2.90
2023-03-04T10:34:19.873Z,2.90
2023-03-04T10:35:20.451Z,3.10
2023-03-04T10:36:19.826Z,3.20
2023-03-04T10:37:18.763Z,3.10
2023-03-04T10:38:18.787Z,2.70
2023-03-04T10:39:18.810Z,2.70
2023-03-04T10:40:18.779Z,3.20
2023-03-04T10:41:19.689Z,2.80
2023-03-04T10:42:18.822Z,2.60
2023-03-04T10:43:18.764Z,2.80
2023-03-04T10:44:18.675Z,2.80
2023-03-04T10:45:18.710Z,2.60
2023-03-04T10:46:19.551Z,2.70
2023-03-04T10:47:18.690Z,2.60
2023-03-04T10:48:18.607Z,3.10
2023-03-04T10:49:18.677Z,2.70
2023-03-04T10:50:18.612Z,2.80
2023-03-04T10:51:18.603Z,3.00
2023-03-04T10:52:18.561Z,3.10
2023-03-04T10:53:18.580Z,2.80
2023-03-04T10:54:18.569Z,2.70
2023-03-04T10:55:18.607Z,2.60
2023-03-04T10:56:18.550Z,2.70
2023-03-04T10:57:18.531Z,2.70
2023-03-04T10:58:18.506Z,2.80
2023-03-04T10:59:18.506Z,2.60
2023-03-04T11:00:18.575Z,2.80
2023-03-04T11:01:18.575Z,2.70
2023-03-04T11:02:18.487Z,2.40
2023-03-04T11:03:18.496Z,2.60
2023-03-04T11:04:18.443Z,2.50
2023-03-04T11:05:18.629Z,2.00
2023-03-04T11:06:18.503Z,2.10
2023-03-04T11:07:18.468Z,2.30
2023-03-04T11:08:18.434Z,2.50
2023-03-04T11:09:18.435Z,2.40
2023-03-04T11:10:18.379Z,2.60
2023-03-04T11:11:18.340Z,2.80
2023-03-04T11:12:18.367Z,2.80
2023-03-04T11:13:18.347Z,2.90
2023-03-04T11:14:18.351Z,2.40
2023-03-04T11:15:18.309Z,2.30
2023-03-04T11:16:18.332Z,2.40
2023-03-04T11:17:18.491Z,2.50
2023-03-04T11:18:18.320Z,2.30
2023-03-04T11:19:18.792Z,2.70
2023-03-04T11:20:18.383Z,2.40
2023-03-04T11:21:18.256Z,2.10
2023-03-04T11:22:18.257Z,2.10
2023-03-04T11:23:18.311Z,2.20
2023-03-04T11:24:29.420Z,2.60
2023-03-04T11:25:20.225Z,2.20
2023-03-04T11:26:18.261Z,2.20
2023-03-04T11:27:18.266Z,2.20
2023-03-04T11:28:18.217Z,2.20
2023-03-04T11:29:18.215Z,2.10
2023-03-04T11:30:18.203Z,2.00
2023-03-04T11:31:18.106Z,2.20
2023-03-04T11:32:18.277Z,2.20
2023-03-04T11:33:18.116Z,2.10
2023-03-04T11:34:18.211Z,2.10
2023-03-04T11:35:18.193Z,1.90
2023-03-04T11:36:18.088Z,2.20
2023-03-04T11:37:18.079Z,2.20
2023-03-04T11:38:18.098Z,2.30
2023-03-04T11:39:18.046Z,2.20
2023-03-04T11:40:18.043Z,2.10
2023-03-04T11:41:18.694Z,2.10
2023-03-04T11:42:18.048Z,2.20
2023-03-04T11:43:18.041Z,2.10
2023-03-04T11:44:18.023Z,1.90
2023-03-04T11:45:28.203Z,2.00
2023-03-04T11:46:20.127Z,2.20
2023-03-04T11:47:18.796Z,2.00
2023-03-04T11:48:18.058Z,2.10
2023-03-04T11:49:17.985Z,2.50
2023-03-04T11:50:18.046Z,2.40
2023-03-04T11:51:17.951Z,2.30
2023-03-04T11:52:17.977Z,2.00
2023-03-04T11:53:17.998Z,2.00
2023-03-04T11:54:17.950Z,2.00
2023-03-04T11:56:34.042Z,1.90
2023-03-04T11:56:35.538Z,2.10
2023-03-04T11:57:35.517Z,2.00
2023-03-04T11:58:35.510Z,2.20
2023-03-04T11:59:35.507Z,2.00
2023-03-04T12:00:35.489Z,2.20
2023-03-04T12:01:35.482Z,2.50
2023-03-04T12:02:35.545Z,2.20
2023-03-04T12:03:35.568Z,2.40
2023-03-04T12:04:35.464Z,2.10
2023-03-04T12:05:35.926Z,2.20
2023-03-04T12:06:35.485Z,2.20
2023-03-04T12:07:35.436Z,2.10
2023-03-04T12:08:37.843Z,4.10
2023-03-04T12:09:36.490Z,4.40
2023-03-04T12:10:35.424Z,3.00
2023-03-04T12:11:35.436Z,2.80
2023-03-04T12:12:35.439Z,2.60
2023-03-04T12:13:35.377Z,2.10
2023-03-04T12:14:35.357Z,2.10
2023-03-04T12:15:35.358Z,2.20
2023-03-04T12:16:36.078Z,2.80
2023-03-04T12:17:35.294Z,2.30
2023-03-04T12:18:35.271Z,2.40
2023-03-04T12:19:35.312Z,2.10
2023-03-04T12:20:35.283Z,2.90
2023-03-04T12:21:35.285Z,4.20
2023-03-04T12:22:36.140Z,2.90
2023-03-04T12:23:35.358Z,3.50
2023-03-04T12:24:35.307Z,4.70
2023-03-04T12:25:35.251Z,2.80
2023-03-04T12:26:35.239Z,2.40
2023-03-04T12:27:35.231Z,2.70
2023-03-04T12:28:35.241Z,5.30
2023-03-04T12:29:35.182Z,3.80
2023-03-04T12:30:35.157Z,2.40
2023-03-04T12:31:35.222Z,2.60
2023-03-04T12:32:35.210Z,2.50
2023-03-04T12:33:35.137Z,2.70
2023-03-04T12:34:35.142Z,2.70
2023-03-04T12:35:35.324Z,2.00
2023-03-04T12:36:35.094Z,2.00
2023-03-04T12:37:35.718Z,2.00
2023-03-04T12:38:36.104Z,2.20
2023-03-04T12:39:35.054Z,2.00
2023-03-04T12:40:35.073Z,2.40
2023-03-04T12:41:35.067Z,2.90
2023-03-04T12:42:35.073Z,2.70
2023-03-04T12:43:36.183Z,3.00
2023-03-04T12:44:36.009Z,2.30
2023-03-04T12:45:35.040Z,2.10
2023-03-04T12:46:35.104Z,2.30
2023-03-04T12:47:35.312Z,3.40
2023-03-04T12:48:34.952Z,2.00
2023-03-04T12:49:35.713Z,2.20
2023-03-04T12:50:35.958Z,2.20
2023-03-04T12:51:34.942Z,2.00
2023-03-04T12:52:34.949Z,2.00
2023-03-04T12:53:34.977Z,2.10
2023-03-04T12:54:34.922Z,2.30
2023-03-04T12:55:34.920Z,2.00
2023-03-04T12:56:34.956Z,2.00
2023-03-04T12:57:35.331Z,2.10
2023-03-04T12:58:34.874Z,2.00
2023-03-04T12:59:34.826Z,2.00
2023-03-04T13:00:34.885Z,1.80
2023-03-04T13:01:34.886Z,1.60
2023-03-04T13:02:34.950Z,2.00
2023-03-04T13:03:34.913Z,2.20
2023-03-04T13:04:34.778Z,2.60
2023-03-04T13:05:34.818Z,2.20
2023-03-04T13:06:34.808Z,1.90
2023-03-04T13:07:34.749Z,2.80
2023-03-04T13:08:34.723Z,3.80
2023-03-04T13:09:34.687Z,2.40
2023-03-04T13:10:34.699Z,2.30
2023-03-04T13:11:34.707Z,2.90